Time;durP1;ratioP1;P1;durP2;ratioP2;P2;SDS_P1;SDS_P2;PMS_P1;PMS_P2;Temp;Humidity;BMP_temperature;BMP_pressure;BME280_temperature;BME280_humidity;BME280_pressure;Samples;Min_cycle;Max_cycle;Signal;HPM_P1;HPM_P2
2024/02/12 00:00:57;;;;;;;;;;;;;;;8.04;76.21;95850.20;110402;1242;69952;-61
2024/02/12 00:03:41;;;;;;;;;;;;;;;8.01;77.13;95849.38;110370;1241;59686;-61
2024/02/12 00:06:10;;;;;;;;;;;;;;;7.99;75.90;95852.63;110442;1241;59633;-61
2024/02/12 00:08:40;;;;;;;;;;;;;;;7.97;76.12;95849.55;110429;1242;71873;-62
2024/02/12 00:11:09;;;;;;;;;;;;;;;7.93;76.39;95848.17;110481;1242;69045;-62
2024/02/12 00:13:38;;;;;;;;;;;;;;;7.91;76.45;95850.59;110556;1241;69026;-61
2024/02/12 00:16:07;;;;;;;;;;;;;;;7.92;75.89;95851.92;110420;1240;59719;-62
2024/02/12 00:18:36;;;;;;;;;;;;;;;7.99;76.02;95847.83;110472;1243;59669;-62
2024/02/12 00:21:05;;;;;;;;;;;;;;;8.07;73.57;95849.04;110491;1248;71874;-63
2024/02/12 00:23:34;;;;;;;;;;;;;;;8.14;73.20;95854.14;110501;1242;69721;-62
2024/02/12 00:26:05;;;;;;;;;;;;;;;8.21;72.96;95852.55;110574;1241;69091;-62
2024/02/12 00:28:34;;;;;;;;;;;;;;;8.27;73.31;95849.20;110449;1240;60049;-62
2024/02/12 00:31:03;;;;;;;;;;;;;;;8.28;74.30;95846.51;110442;1242;59694;-62
2024/02/12 00:33:33;;;;;;;;;;;;;;;8.27;73.36;95850.23;110316;1243;71830;-62
2024/02/12 00:36:02;;;;;;;;;;;;;;;8.25;73.27;95851.64;110400;1241;69854;-63
2024/02/12 00:38:31;;;;;;;;;;;;;;;8.23;73.14;95845.88;110373;1242;68212;-61
2024/02/12 00:40:59;;;;;;;;;;;;;;;8.24;72.63;95847.23;110414;1240;59640;-61
2024/02/12 00:43:28;;;;;;;;;;;;;;;8.16;75.72;95849.64;110398;1241;59724;-61
2024/02/12 00:45:58;;;;;;;;;;;;;;;8.08;73.93;95845.66;110505;1239;72083;-62
2024/02/12 00:48:27;;;;;;;;;;;;;;;8.02;73.05;95840.64;110378;1241;69071;-63
2024/02/12 00:50:56;;;;;;;;;;;;;;;7.97;74.40;95841.38;110410;1241;69884;-63
2024/02/12 00:53:25;;;;;;;;;;;;;;;7.96;74.95;95845.29;110370;1240;59655;-60
2024/02/12 00:55:55;;;;;;;;;;;;;;;7.98;76.46;95845.09;110338;1241;59690;-61
2024/02/12 00:58:24;;;;;;;;;;;;;;;7.99;75.20;95843.28;110373;1241;71340;-61
2024/02/12 01:00:53;;;;;;;;;;;;;;;7.99;73.85;95838.77;110364;1241;69213;-61
2024/02/12 01:03:22;;;;;;;;;;;;;;;7.98;75.07;95836.23;110415;1238;68532;-63
2024/02/12 01:05:52;;;;;;;;;;;;;;;7.97;78.45;95836.08;110300;1241;59689;-63
2024/02/12 01:08:21;;;;;;;;;;;;;;;7.95;76.98;95831.33;110376;1238;59673;-63
2024/02/12 01:10:50;;;;;;;;;;;;;;;7.95;74.94;95830.50;110424;1238;70348;-61
2024/02/12 01:13:19;;;;;;;;;;;;;;;7.95;74.30;95827.69;110458;1239;68417;-61
2024/02/12 01:15:49;;;;;;;;;;;;;;;7.96;75.50;95828.83;110480;1241;69052;-61
2024/02/12 01:18:18;;;;;;;;;;;;;;;7.98;76.26;95828.43;110376;1238;59743;-61
2024/02/12 01:20:46;;;;;;;;;;;;;;;8.01;79.40;95825.44;110416;1238;59734;-61
2024/02/12 01:23:15;;;;;;;;;;;;;;;8.04;77.38;95820.84;110440;1238;72033;-61
2024/02/12 01:25:46;;;;;;;;;;;;;;;8.09;74.27;95813.31;110325;1241;69179;-61
2024/02/12 01:28:17;;;;;;;;;;;;;;;8.12;74.74;95810.02;110343;1241;69681;-61
2024/02/12 01:30:46;;;;;;;;;;;;;;;8.16;74.92;95807.95;110536;1241;59660;-61
2024/02/12 01:33:16;;;;;;;;;;;;;;;8.19;74.48;95802.57;110420;1241;59683;-61
2024/02/12 01:35:46;;;;;;;;;;;;;;;8.20;74.76;95798.50;110388;1242;71163;-61
2024/02/12 01:38:16;;;;;;;;;;;;;;;8.19;74.47;95793.85;110408;1241;68565;-62
2024/02/12 01:40:44;;;;;;;;;;;;;;;8.17;75.89;95795.20;110413;1242;69239;-61
2024/02/12 01:43:34;;;;;;;;;;;;;;;8.13;76.05;95797.67;110355;1240;59725;-61
2024/02/12 01:46:06;;;;;;;;;;;;;;;8.04;75.78;95791.86;110444;1238;59734;-61
2024/02/12 01:48:38;;;;;;;;;;;;;;;7.96;78.71;95790.48;110575;1241;71213;-62
2024/02/12 01:51:09;;;;;;;;;;;;;;;7.84;79.93;95786.51;110530;1240;69834;-62
2024/02/12 01:53:39;;;;;;;;;;;;;;;7.70;80.42;95786.92;110526;1242;69315;-62
2024/02/12 01:56:09;;;;;;;;;;;;;;;7.57;82.43;95782.64;110480;1241;59692;-62
2024/02/12 01:58:40;;;;;;;;;;;;;;;7.46;84.97;95790.54;110437;1240;59709;-62
2024/02/12 02:01:14;;;;;;;;;;;;;;;7.39;82.32;95788.84;110484;1242;69540;-62
2024/02/12 02:03:43;;;;;;;;;;;;;;;7.36;79.93;95786.85;110409;1248;69859;-62
2024/02/12 02:06:13;;;;;;;;;;;;;;;7.37;77.09;95788.70;110372;1242;69825;-62
2024/02/12 02:08:44;;;;;;;;;;;;;;;7.37;83.28;95787.27;110435;1242;59739;-62
2024/02/12 02:11:15;;;;;;;;;;;;;;;7.38;79.92;95786.32;110431;1242;59685;-62
2024/02/12 02:13:44;;;;;;;;;;;;;;;7.39;78.22;95789.70;110386;1240;71797;-62
2024/02/12 02:16:15;;;;;;;;;;;;;;;7.42;80.67;95793.84;110442;1240;69643;-62
2024/02/12 02:18:50;;;;;;;;;;;;;;;7.43;78.12;95793.17;110413;1241;70025;-62
2024/02/12 02:21:22;;;;;;;;;;;;;;;7.45;79.47;95791.14;110379;1242;59734;-62
2024/02/12 02:23:57;;;;;;;;;;;;;;;7.46;84.51;95789.34;110398;1242;59679;-62
2024/02/12 02:26:27;;;;;;;;;;;;;;;7.45;84.28;95788.30;110360;1242;71938;-62
2024/02/12 02:28:58;;;;;;;;;;;;;;;7.45;83.40;95788.00;110374;1241;68295;-62
2024/02/12 02:31:27;;;;;;;;;;;;;;;7.44;87.35;95782.72;110364;1240;68615;-62
2024/02/12 02:33:56;;;;;;;;;;;;;;;7.41;85.80;95782.59;110387;1238;59839;-62
2024/02/12 02:36:25;;;;;;;;;;;;;;;7.39;81.41;95781.91;110457;1241;60120;-62
2024/02/12 02:39:01;;;;;;;;;;;;;;;7.37;81.50;95780.52;110398;1238;71487;-62
2024/02/12 02:41:32;;;;;;;;;;;;;;;7.40;80.72;95779.41;110416;1242;69965;-62
2024/02/12 02:44:01;;;;;;;;;;;;;;;7.45;81.33;95781.27;110441;1238;70051;-62
2024/02/12 02:46:30;;;;;;;;;;;;;;;7.49;81.35;95782.27;110367;1242;59670;-62
2024/02/12 02:48:59;;;;;;;;;;;;;;;7.52;81.21;95785.98;110417;1241;59686;-62
2024/02/12 02:51:29;;;;;;;;;;;;;;;7.53;81.79;95784.66;110415;1241;71965;-63
2024/02/12 02:53:58;;;;;;;;;;;;;;;7.55;81.30;95787.51;110485;1248;68832;-62
2024/02/12 02:56:26;;;;;;;;;;;;;;;7.57;81.63;95789.86;110377;1238;69858;-63
2024/02/12 02:58:55;;;;;;;;;;;;;;;7.58;84.15;95789.42;110423;1240;59670;-63
2024/02/12 03:01:24;;;;;;;;;;;;;;;7.59;81.44;95790.02;110454;1240;59745;-63
2024/02/12 03:03:55;;;;;;;;;;;;;;;7.61;79.92;95788.80;110456;1241;71235;-61
2024/02/12 03:06:24;;;;;;;;;;;;;;;7.62;84.13;95792.54;110573;1241;69730;-62
2024/02/12 03:08:54;;;;;;;;;;;;;;;7.62;88.32;95792.23;110553;1241;68514;-62
2024/02/12 03:11:26;;;;;;;;;;;;;;;7.59;92.57;95789.36;110507;1241;59627;-62
2024/02/12 03:13:55;;;;;;;;;;;;;;;7.56;86.33;95792.19;110470;1241;59690;-62
2024/02/12 03:16:24;;;;;;;;;;;;;;;7.53;88.77;95791.09;110392;1241;71974;-62
2024/02/12 03:18:54;;;;;;;;;;;;;;;7.52;88.24;95788.23;110504;1241;69878;-62
2024/02/12 03:21:23;;;;;;;;;;;;;;;7.52;87.69;95791.41;110476;1240;69923;-62
2024/02/12 03:23:53;;;;;;;;;;;;;;;7.51;87.99;95787.08;110426;1248;59691;-64
2024/02/12 03:26:22;;;;;;;;;;;;;;;7.53;85.80;95783.33;110514;1241;59747;-63
2024/02/12 03:28:51;;;;;;;;;;;;;;;7.57;83.43;95780.32;110493;1241;71307;-61
2024/02/12 03:31:20;;;;;;;;;;;;;;;7.60;92.07;95782.35;110260;1242;69819;-64
2024/02/12 03:33:49;;;;;;;;;;;;;;;7.60;89.87;95777.30;110494;1241;69857;-61
2024/02/12 03:36:18;;;;;;;;;;;;;;;7.55;92.98;95782.74;110469;1240;59692;-62
2024/02/12 03:38:47;;;;;;;;;;;;;;;7.47;93.92;95787.27;110454;1241;59676;-61
2024/02/12 03:41:18;;;;;;;;;;;;;;;7.40;92.50;95782.17;110515;1248;70355;-61
2024/02/12 03:43:47;;;;;;;;;;;;;;;7.35;92.67;95781.05;110546;1238;70048;-61
2024/02/12 03:46:28;;;;;;;;;;;;;;;7.34;85.31;95778.02;110513;1238;69269;-61
2024/02/12 04:00:22;;;;;;;;;;;;;;;7.14;98.26;95782.48;110083;1241;69084;-63
2024/02/12 04:02:51;;;;;;;;;;;;;;;7.14;98.39;95781.60;110402;1240;59695;-61
2024/02/12 04:05:20;;;;;;;;;;;;;;;7.17;98.79;95781.73;110502;1238;59733;-61
2024/02/12 04:07:49;;;;;;;;;;;;;;;7.18;88.29;95775.06;110505;1242;71240;-62
2024/02/12 04:10:19;;;;;;;;;;;;;;;7.16;89.24;95771.27;110397;1240;69191;-62
2024/02/12 04:12:48;;;;;;;;;;;;;;;7.13;91.86;95772.66;110365;1238;69088;-62
2024/02/12 04:15:17;;;;;;;;;;;;;;;7.13;97.01;95775.29;110462;1241;60034;-62
2024/02/12 04:17:46;;;;;;;;;;;;;;;7.15;98.70;95779.83;110479;1242;59627;-62
2024/02/12 04:20:18;;;;;;;;;;;;;;;7.16;96.45;95785.27;110400;1239;71501;-61
2024/02/12 04:22:47;;;;;;;;;;;;;;;7.17;95.91;95780.86;110507;1238;69211;-61
2024/02/12 04:25:19;;;;;;;;;;;;;;;7.20;96.81;95783.36;110391;1241;69884;-61
2024/02/12 04:27:50;;;;;;;;;;;;;;;7.20;99.60;95783.54;110439;1239;59676;-62
2024/02/12 04:30:20;;;;;;;;;;;;;;;7.13;100.00;95785.13;110394;1242;59673;-61
2024/02/12 04:32:49;;;;;;;;;;;;;;;7.08;100.00;95787.85;110355;1241;71974;-61
2024/02/12 04:35:17;;;;;;;;;;;;;;;7.06;99.30;95786.27;110374;1241;69179;-61
2024/02/12 04:37:46;;;;;;;;;;;;;;;7.02;93.01;95778.13;110306;1241;69095;-62
2024/02/12 04:40:16;;;;;;;;;;;;;;;6.99;100.00;95775.46;110406;1241;59669;-61
2024/02/12 04:42:44;;;;;;;;;;;;;;;6.97;99.59;95772.35;110366;1238;59687;-62
2024/02/12 04:45:13;;;;;;;;;;;;;;;6.92;100.00;95769.14;110293;1241;71213;-61
2024/02/12 04:47:42;;;;;;;;;;;;;;;6.83;99.86;95766.88;110408;1240;68445;-61
2024/02/12 04:50:11;;;;;;;;;;;;;;;6.77;99.93;95770.53;110432;1241;70383;-61
2024/02/12 04:52:40;;;;;;;;;;;;;;;6.74;99.41;95772.69;110385;1241;59782;-63
2024/02/12 04:55:12;;;;;;;;;;;;;;;6.75;95.10;95772.81;110396;1242;59674;-61
2024/02/12 04:57:41;;;;;;;;;;;;;;;6.79;94.00;95774.72;110383;1241;71536;-61
2024/02/12 05:00:10;;;;;;;;;;;;;;;6.85;92.56;95777.81;110401;1241;69022;-61
2024/02/12 05:02:42;;;;;;;;;;;;;;;6.92;95.97;95778.14;110385;1241;69762;-61
2024/02/12 05:05:11;;;;;;;;;;;;;;;6.95;95.38;95772.20;110416;1240;59669;-61
2024/02/12 05:07:40;;;;;;;;;;;;;;;6.95;94.05;95774.79;110371;1241;59630;-61
2024/02/12 05:10:09;;;;;;;;;;;;;;;6.95;93.61;95771.61;110369;1241;70894;-61
2024/02/12 05:12:38;;;;;;;;;;;;;;;6.98;93.52;95774.11;110364;1240;68133;-61
2024/02/12 05:15:09;;;;;;;;;;;;;;;7.03;93.34;95770.41;110356;1242;69241;-61
2024/02/12 05:17:55;;;;;;;;;;;;;;;7.09;92.48;95773.35;110465;1242;59709;-63
2024/02/12 05:23:12;;;;;;;;;;;;;;;7.15;97.98;95775.31;110428;1247;71897;-62
2024/02/12 05:25:43;;;;;;;;;;;;;;;7.11;100.00;95771.65;110357;1238;68668;-61
2024/02/12 05:28:12;;;;;;;;;;;;;;;7.11;99.13;95775.80;110483;1238;69264;-62
2024/02/12 05:30:41;;;;;;;;;;;;;;;7.12;99.54;95775.54;110355;1240;59738;-61
2024/02/12 05:33:11;;;;;;;;;;;;;;;7.13;98.58;95783.41;110395;1240;60091;-61
2024/02/12 05:35:40;;;;;;;;;;;;;;;7.06;98.62;95785.54;110554;1242;71965;-61
2024/02/12 05:38:09;;;;;;;;;;;;;;;6.98;100.00;95785.08;110512;1241;69226;-62
2024/02/12 05:40:38;;;;;;;;;;;;;;;6.94;100.00;95787.80;110513;1241;69246;-62
2024/02/12 05:43:07;;;;;;;;;;;;;;;6.91;100.00;95794.64;110478;1243;59762;-61
2024/02/12 05:45:36;;;;;;;;;;;;;;;6.92;100.00;95797.02;110440;1238;60143;-62
2024/02/12 05:48:05;;;;;;;;;;;;;;;6.94;100.00;95803.27;110445;1241;71445;-62
2024/02/12 05:50:35;;;;;;;;;;;;;;;6.91;100.00;95802.44;110571;1241;69787;-63
2024/02/12 05:53:04;;;;;;;;;;;;;;;6.87;100.00;95803.61;110583;1241;69882;-63
2024/02/12 05:55:34;;;;;;;;;;;;;;;6.88;100.00;95811.17;110517;1241;59727;-62
2024/02/12 05:58:03;;;;;;;;;;;;;;;6.92;100.00;95812.91;110553;1238;59750;-62
2024/02/12 06:00:34;;;;;;;;;;;;;;;6.96;100.00;95818.84;110436;1241;71270;-63
2024/02/12 06:03:02;;;;;;;;;;;;;;;6.96;100.00;95820.04;110503;1242;68275;-62
2024/02/12 06:05:31;;;;;;;;;;;;;;;6.88;100.00;95830.08;110464;1244;69070;-61
2024/02/12 06:08:01;;;;;;;;;;;;;;;6.85;100.00;95830.16;110495;1241;59723;-62
2024/02/12 06:10:31;;;;;;;;;;;;;;;6.84;100.00;95833.31;110452;1240;59670;-61
2024/02/12 06:13:00;;;;;;;;;;;;;;;6.86;100.00;95833.02;110416;1240;71806;-61
2024/02/12 06:15:31;;;;;;;;;;;;;;;6.88;100.00;95835.27;110491;1241;69199;-61
2024/02/12 06:18:00;;;;;;;;;;;;;;;6.92;100.00;95835.06;110157;1249;69318;-61
2024/02/12 06:20:29;;;;;;;;;;;;;;;6.97;100.00;95833.46;110572;1249;59741;-61
2024/02/12 06:22:58;;;;;;;;;;;;;;;7.03;100.00;95833.10;110411;1242;59672;-61
2024/02/12 06:25:26;;;;;;;;;;;;;;;7.10;100.00;95831.86;110580;1241;72272;-61
2024/02/12 06:27:57;;;;;;;;;;;;;;;7.18;100.00;95831.21;110452;1238;70098;-61
2024/02/12 06:30:26;;;;;;;;;;;;;;;7.24;100.00;95828.40;110468;1238;68709;-61
2024/02/12 06:32:55;;;;;;;;;;;;;;;7.30;100.00;95828.59;110404;1240;59750;-61
2024/02/12 06:35:25;;;;;;;;;;;;;;;7.35;100.00;95827.47;110411;1242;59708;-62
2024/02/12 06:37:54;;;;;;;;;;;;;;;7.37;100.00;95829.59;110421;1241;71874;-61
2024/02/12 06:40:22;;;;;;;;;;;;;;;7.40;100.00;95825.53;110356;1245;69187;-61
2024/02/12 06:42:51;;;;;;;;;;;;;;;7.42;100.00;95824.35;110355;1241;69168;-61
2024/02/12 06:45:20;;;;;;;;;;;;;;;7.44;100.00;95825.48;110375;1242;59747;-61
2024/02/12 06:47:49;;;;;;;;;;;;;;;7.47;100.00;95828.34;110396;1241;59630;-61
2024/02/12 06:50:18;;;;;;;;;;;;;;;7.55;100.00;95829.41;110427;1241;71799;-61
2024/02/12 06:52:47;;;;;;;;;;;;;;;7.62;100.00;95833.00;110482;1241;69732;-61
2024/02/12 06:55:16;;;;;;;;;;;;;;;7.70;100.00;95829.88;110456;1239;68263;-61
2024/02/12 06:57:45;;;;;;;;;;;;;;;7.77;100.00;95832.23;110437;1242;59690;-61
2024/02/12 07:00:19;;;;;;;;;;;;;;;7.85;100.00;95832.41;110465;1241;59731;-61
2024/02/12 07:02:48;;;;;;;;;;;;;;;7.94;100.00;95829.67;110412;1241;72045;-61
2024/02/12 07:05:17;;;;;;;;;;;;;;;8.05;100.00;95826.48;110417;1241;68805;-62
2024/02/12 07:07:47;;;;;;;;;;;;;;;8.16;100.00;95827.38;110371;1240;69253;-61
2024/02/12 07:10:15;;;;;;;;;;;;;;;8.28;100.00;95828.59;110549;1242;59704;-61
2024/02/12 07:12:46;;;;;;;;;;;;;;;8.39;100.00;95830.11;110437;1242;59684;-61
2024/02/12 07:15:15;;;;;;;;;;;;;;;8.50;100.00;95833.98;110380;1240;71337;-61
2024/02/12 07:17:46;;;;;;;;;;;;;;;8.59;100.00;95830.75;110467;1240;69428;-61
2024/02/12 07:20:16;;;;;;;;;;;;;;;8.72;100.00;95828.00;110407;1238;69031;-61
2024/02/12 07:22:46;;;;;;;;;;;;;;;8.88;99.60;95827.27;110502;1238;59731;-61
2024/02/12 07:25:15;;;;;;;;;;;;;;;9.05;99.15;95824.44;110413;1241;59685;-61
2024/02/12 07:27:44;;;;;;;;;;;;;;;9.27;98.44;95824.18;110476;1241;71959;-61
2024/02/12 07:30:13;;;;;;;;;;;;;;;9.49;97.68;95819.04;110405;1241;69220;-61
2024/02/12 07:32:41;;;;;;;;;;;;;;;9.67;99.60;95816.40;110370;1238;69741;-61
2024/02/12 07:35:11;;;;;;;;;;;;;;;9.83;97.73;95809.52;110436;1238;59760;-61
2024/02/12 07:37:41;;;;;;;;;;;;;;;9.97;96.93;95809.44;110406;1239;59676;-61
2024/02/12 07:40:13;;;;;;;;;;;;;;;10.06;96.98;95805.04;110424;1241;71181;-61
2024/02/12 07:42:42;;;;;;;;;;;;;;;10.10;97.69;95800.11;110416;1242;69687;-61
2024/02/12 07:45:13;;;;;;;;;;;;;;;10.15;97.12;95797.45;110491;1241;69217;-61
2024/02/12 07:47:43;;;;;;;;;;;;;;;10.19;95.88;95794.92;110415;1241;59678;-62
2024/02/12 07:50:13;;;;;;;;;;;;;;;10.24;94.86;95799.18;110373;1245;59686;-61
2024/02/12 07:52:41;;;;;;;;;;;;;;;10.26;93.80;95798.83;110374;1242;71786;-61
2024/02/12 07:55:11;;;;;;;;;;;;;;;10.27;93.12;95798.95;110383;1238;69017;-62
2024/02/12 07:57:41;;;;;;;;;;;;;;;10.29;92.39;95797.63;110437;1238;69581;-62
2024/02/12 08:00:14;;;;;;;;;;;;;;;10.41;93.36;95794.95;110448;1238;59722;-62
2024/02/12 08:02:47;;;;;;;;;;;;;;;10.60;92.68;95794.56;110419;1240;59676;-62
2024/02/12 08:05:16;;;;;;;;;;;;;;;10.83;92.23;95791.30;110418;1241;71780;-62
2024/02/12 08:07:45;;;;;;;;;;;;;;;11.01;91.94;95791.45;110437;1238;69097;-62
2024/02/12 08:10:30;;;;;;;;;;;;;;;11.13;90.00;95789.39;110356;1242;69667;-62
2024/02/12 08:12:59;;;;;;;;;;;;;;;11.25;87.66;95789.14;110397;1238;59703;-62
2024/02/12 08:15:28;;;;;;;;;;;;;;;11.49;87.61;95791.44;110383;1238;59631;-62
2024/02/12 08:17:57;;;;;;;;;;;;;;;11.78;90.09;95797.90;110433;1243;70363;-62
2024/02/12 08:20:26;;;;;;;;;;;;;;;12.05;87.13;95796.20;110370;1241;69035;-62
2024/02/12 08:22:55;;;;;;;;;;;;;;;12.29;84.12;95794.68;110618;1240;69239;-62
2024/02/12 08:25:27;;;;;;;;;;;;;;;12.38;81.43;95799.84;110430;1238;59751;-62
2024/02/12 08:27:56;;;;;;;;;;;;;;;12.45;81.56;95805.62;110413;1240;60058;-63
2024/02/12 08:30:26;;;;;;;;;;;;;;;12.52;80.75;95805.42;110478;1238;71161;-63
2024/02/12 08:32:55;;;;;;;;;;;;;;;12.53;80.28;95805.09;110439;1241;69186;-63
2024/02/12 08:35:24;;;;;;;;;;;;;;;12.73;80.15;95804.39;110381;1241;69047;-63
2024/02/12 08:37:52;;;;;;;;;;;;;;;13.10;78.45;95801.63;110391;1238;59739;-63
2024/02/12 08:40:22;;;;;;;;;;;;;;;13.62;74.35;95799.48;110431;1238;59673;-62
2024/02/12 08:42:51;;;;;;;;;;;;;;;14.00;72.25;95799.36;110437;1238;70316;-63
2024/02/12 08:45:20;;;;;;;;;;;;;;;14.51;70.09;95804.54;110458;1241;69311;-63
2024/02/12 08:47:49;;;;;;;;;;;;;;;15.04;67.10;95807.84;110398;1241;69254;-61
2024/02/12 08:50:18;;;;;;;;;;;;;;;15.67;68.31;95808.03;110472;1240;59725;-61
2024/02/12 08:52:46;;;;;;;;;;;;;;;15.96;67.86;95809.52;110572;1241;59668;-61
2024/02/12 08:55:16;;;;;;;;;;;;;;;16.36;66.93;95810.34;110411;1241;71768;-61
2024/02/12 08:57:45;;;;;;;;;;;;;;;16.80;62.83;95810.20;110398;1238;69416;-61
2024/02/12 09:00:22;;;;;;;;;;;;;;;16.87;60.05;95808.82;110399;1240;69932;-62
2024/02/12 09:02:51;;;;;;;;;;;;;;;16.92;58.02;95800.66;110382;1238;59743;-63
2024/02/12 09:05:20;;;;;;;;;;;;;;;17.59;56.38;95788.36;110472;1238;59718;-61
2024/02/12 09:07:48;;;;;;;;;;;;;;;18.38;54.03;95785.94;110464;1242;70650;-62
2024/02/12 09:10:18;;;;;;;;;;;;;;;18.82;50.54;95782.60;110372;1241;69139;-61
2024/02/12 09:12:51;;;;;;;;;;;;;;;19.58;54.19;95776.64;110278;1242;69731;-60
2024/02/12 09:15:21;;;;;;;;;;;;;;;19.98;48.92;95772.11;110388;1241;60102;-61
2024/02/12 09:17:51;;;;;;;;;;;;;;;20.23;48.40;95769.89;110358;1242;59602;-61
2024/02/12 09:20:21;;;;;;;;;;;;;;;20.73;49.16;95769.91;110360;1241;71989;-61
2024/02/12 09:22:51;;;;;;;;;;;;;;;21.42;51.21;95765.14;110379;1242;69760;-62
2024/02/12 09:25:21;;;;;;;;;;;;;;;22.01;53.42;95762.91;110482;1241;68516;-62
2024/02/12 09:27:51;;;;;;;;;;;;;;;22.37;49.74;95762.90;110317;1240;59687;-62
2024/02/12 09:30:20;;;;;;;;;;;;;;;22.71;50.37;95761.50;110413;1241;59641;-62
2024/02/12 09:32:49;;;;;;;;;;;;;;;23.02;47.32;95757.67;110442;1240;71951;-62
2024/02/12 09:35:18;;;;;;;;;;;;;;;22.73;41.83;95752.66;110374;1241;69239;-62
2024/02/12 09:37:49;;;;;;;;;;;;;;;22.84;41.95;95754.00;110370;1240;69839;-62
2024/02/12 09:40:22;;;;;;;;;;;;;;;22.93;41.45;95746.19;110389;1238;59737;-62
2024/02/12 09:42:53;;;;;;;;;;;;;;;23.02;43.29;95744.38;110474;1238;59700;-61
2024/02/12 09:45:22;;;;;;;;;;;;;;;23.72;41.59;95737.79;110373;1238;71323;-62
2024/02/12 09:47:52;;;;;;;;;;;;;;;23.78;39.44;95740.79;110500;1241;70115;-62
2024/02/12 09:50:22;;;;;;;;;;;;;;;24.46;38.14;95743.13;110392;1238;68103;-61
2024/02/12 09:52:51;;;;;;;;;;;;;;;24.46;37.17;95742.64;110589;1241;59687;-62
2024/02/12 09:55:21;;;;;;;;;;;;;;;23.81;36.86;95742.48;110449;1241;59673;-62
2024/02/12 09:57:51;;;;;;;;;;;;;;;23.80;40.27;95740.73;110409;1238;72009;-62
2024/02/12 10:00:22;;;;;;;;;;;;;;;23.37;40.27;95739.98;110355;1240;70317;-63
2024/02/12 10:02:51;;;;;;;;;;;;;;;22.61;38.86;95740.80;110395;1238;69665;-62
2024/02/12 10:05:20;;;;;;;;;;;;;;;22.14;40.26;95738.32;110364;1240;59740;-62
2024/02/12 10:07:50;;;;;;;;;;;;;;;21.67;41.00;95731.68;110425;1238;59654;-61
2024/02/12 10:10:19;;;;;;;;;;;;;;;21.00;41.04;95726.52;110373;1241;72196;-61
2024/02/12 10:12:51;;;;;;;;;;;;;;;20.63;41.32;95728.36;110351;1241;68454;-62
2024/02/12 10:15:21;;;;;;;;;;;;;;;20.05;43.35;95727.12;110406;1240;69242;-62
2024/02/12 10:17:50;;;;;;;;;;;;;;;19.98;43.58;95728.23;110399;1241;60095;-62
2024/02/12 10:20:20;;;;;;;;;;;;;;;19.79;43.18;95724.13;110433;1240;59728;-62
2024/02/12 10:22:49;;;;;;;;;;;;;;;20.12;43.74;95722.91;110415;1238;72109;-62
2024/02/12 10:25:19;;;;;;;;;;;;;;;21.02;43.05;95715.51;110412;1240;69189;-62
2024/02/12 10:27:48;;;;;;;;;;;;;;;21.83;41.68;95710.36;110385;1238;68501;-63
2024/02/12 10:30:18;;;;;;;;;;;;;;;22.77;39.62;95710.23;110372;1240;59682;-63
2024/02/12 10:32:50;;;;;;;;;;;;;;;23.65;38.33;95705.14;110493;1240;59654;-62
2024/02/12 10:35:20;;;;;;;;;;;;;;;24.33;37.56;95708.64;110471;1238;72069;-62
2024/02/12 10:37:50;;;;;;;;;;;;;;;24.73;36.54;95704.06;110529;1241;69202;-62
2024/02/12 10:40:23;;;;;;;;;;;;;;;25.61;36.10;95698.89;110507;1238;69465;-62
2024/02/12 10:42:53;;;;;;;;;;;;;;;26.00;35.01;95696.88;110415;1241;59660;-62
2024/02/12 10:45:22;;;;;;;;;;;;;;;25.38;32.97;95694.67;110498;1241;59685;-63
2024/02/12 10:47:51;;;;;;;;;;;;;;;25.67;34.13;95691.69;110414;1238;72364;-62
2024/02/12 10:50:21;;;;;;;;;;;;;;;25.36;33.93;95688.45;110481;1238;69724;-62
2024/02/12 10:52:52;;;;;;;;;;;;;;;25.44;33.05;95684.34;110485;1238;69153;-62
2024/02/12 10:55:22;;;;;;;;;;;;;;;24.44;33.14;95681.08;110480;1240;59735;-62
2024/02/12 10:57:50;;;;;;;;;;;;;;;24.13;34.12;95677.19;110407;1240;59668;-61
2024/02/12 11:00:23;;;;;;;;;;;;;;;23.47;34.27;95673.41;110390;1242;71154;-61
2024/02/12 11:02:55;;;;;;;;;;;;;;;22.55;35.83;95674.21;110445;1240;69677;-61
2024/02/12 11:05:24;;;;;;;;;;;;;;;21.99;36.03;95670.23;110568;1240;68319;-64
2024/02/12 11:08:06;;;;;;;;;;;;;;;21.17;38.04;95665.45;110493;1241;59660;-64
2024/02/12 11:10:35;;;;;;;;;;;;;;;20.66;38.94;95666.05;110524;1238;59662;-63
2024/02/12 11:13:05;;;;;;;;;;;;;;;19.89;40.10;95667.38;110432;1238;71905;-63
2024/02/12 11:15:35;;;;;;;;;;;;;;;19.71;40.45;95663.66;110517;1240;69828;-63
2024/02/12 11:18:13;;;;;;;;;;;;;;;19.02;41.99;95659.38;110414;1238;69241;-60
2024/02/12 11:20:51;;;;;;;;;;;;;;;18.65;42.93;95654.60;110474;1242;59660;-62
2024/02/12 11:23:24;;;;;;;;;;;;;;;18.50;44.16;95650.85;110394;1241;59706;-62
2024/02/12 11:25:55;;;;;;;;;;;;;;;18.58;44.58;95646.16;110431;1243;71150;-62
2024/02/12 11:28:26;;;;;;;;;;;;;;;18.37;46.26;95638.19;110373;1240;68185;-62
2024/02/12 11:30:55;;;;;;;;;;;;;;;18.24;45.98;95630.90;110424;1238;69888;-62
2024/02/12 11:33:24;;;;;;;;;;;;;;;18.07;46.79;95626.80;110405;1241;59740;-62
2024/02/12 11:36:07;;;;;;;;;;;;;;;17.94;46.46;95620.29;110391;1242;59655;-62
2024/02/12 11:38:37;;;;;;;;;;;;;;;17.91;46.32;95618.64;110482;1238;70348;-62
2024/02/12 11:41:06;;;;;;;;;;;;;;;17.92;45.96;95614.73;110565;1241;69887;-62
2024/02/12 11:43:35;;;;;;;;;;;;;;;17.88;46.06;95616.61;110418;1241;68860;-61
2024/02/12 11:46:04;;;;;;;;;;;;;;;17.79;46.67;95617.98;110364;1240;59753;-61
2024/02/12 11:48:32;;;;;;;;;;;;;;;17.71;47.10;95621.05;110391;1241;59683;-63
2024/02/12 11:51:01;;;;;;;;;;;;;;;17.67;46.35;95620.27;110505;1238;71435;-63
2024/02/12 11:53:30;;;;;;;;;;;;;;;17.52;47.71;95618.72;110421;1240;68570;-62
2024/02/12 11:56:01;;;;;;;;;;;;;;;17.45;47.37;95612.98;110370;1238;69712;-63
2024/02/12 11:58:30;;;;;;;;;;;;;;;17.32;48.73;95608.15;110467;1241;59750;-61
2024/02/12 12:00:59;;;;;;;;;;;;;;;17.29;47.97;95600.46;110387;1241;59691;-61
2024/02/12 12:03:28;;;;;;;;;;;;;;;17.28;49.19;95596.20;110424;1241;71822;-61
2024/02/12 12:05:56;;;;;;;;;;;;;;;17.32;49.04;95591.21;110434;1242;69778;-62
2024/02/12 12:08:25;;;;;;;;;;;;;;;17.34;49.15;95588.09;110348;1238;69170;-62
2024/02/12 12:11:03;;;;;;;;;;;;;;;17.39;48.68;95586.29;110363;1240;59770;-61
2024/02/12 12:13:32;;;;;;;;;;;;;;;17.41;48.39;95583.45;110578;1238;59669;-61
2024/02/12 12:16:00;;;;;;;;;;;;;;;17.40;48.24;95578.93;110471;1238;72244;-61
2024/02/12 12:18:29;;;;;;;;;;;;;;;17.36;48.26;95578.88;110414;1242;69216;-61
2024/02/12 12:20:58;;;;;;;;;;;;;;;17.23;48.80;95577.45;110522;1240;69732;-62
2024/02/12 12:23:27;;;;;;;;;;;;;;;17.14;48.53;95574.09;110459;1240;59750;-62
2024/02/12 12:25:56;;;;;;;;;;;;;;;17.06;49.07;95572.84;110431;1241;59673;-62
2024/02/12 12:28:25;;;;;;;;;;;;;;;16.90;49.99;95572.55;110539;1238;71703;-61
2024/02/12 12:30:55;;;;;;;;;;;;;;;16.70;50.23;95574.33;110563;1241;69230;-61
2024/02/12 12:33:26;;;;;;;;;;;;;;;16.68;50.78;95573.04;110416;1238;69763;-62
2024/02/12 12:35:56;;;;;;;;;;;;;;;16.60;50.61;95570.64;110389;1242;59601;-62
2024/02/12 12:38:24;;;;;;;;;;;;;;;16.54;50.07;95568.41;110479;1241;59725;-61
2024/02/12 12:40:54;;;;;;;;;;;;;;;16.50;50.14;95569.53;110378;1240;71822;-61
2024/02/12 12:43:23;;;;;;;;;;;;;;;16.45;50.49;95569.54;110387;1242;69741;-61
2024/02/12 12:45:52;;;;;;;;;;;;;;;16.38;50.95;95569.36;110357;1241;69692;-61
2024/02/12 12:48:22;;;;;;;;;;;;;;;16.26;51.62;95566.27;110349;1241;59676;-61
2024/02/12 12:50:52;;;;;;;;;;;;;;;16.18;52.11;95563.77;110423;1242;59689;-62
2024/02/12 12:53:29;;;;;;;;;;;;;;;16.10;52.52;95563.42;110527;1239;71938;-62
2024/02/12 12:55:58;;;;;;;;;;;;;;;15.98;52.64;95563.81;110520;1241;69691;-62
2024/02/12 12:58:28;;;;;;;;;;;;;;;15.87;53.11;95563.11;110506;1241;68799;-61
2024/02/12 13:00:58;;;;;;;;;;;;;;;15.80;54.70;95563.93;110476;1241;59679;-62
2024/02/12 13:03:26;;;;;;;;;;;;;;;15.78;55.33;95561.41;110509;1240;59702;-61
2024/02/12 13:05:56;;;;;;;;;;;;;;;15.82;54.40;95556.73;110527;1240;71976;-61
2024/02/12 13:08:25;;;;;;;;;;;;;;;15.85;53.96;95553.73;110506;1240;70233;-61